Time;durP1;ratioP1;P1;durP2;ratioP2;P2;SDS_P1;SDS_P2;PMS_P1;PMS_P2;Temp;Humidity;BMP_temperature;BMP_pressure;BME280_temperature;BME280_humidity;BME280_pressure;Samples;Min_cycle;Max_cycle;Signal;HPM_P1;HPM_P2
2023/05/19 00:01:36;;;;;;;10.75;5.32;;;;;;;13.61;59.42;102884.03;5047741;28;20064;-47
2023/05/19 00:04:04;;;;;;;11.68;5.45;;;;;;;13.65;59.38;102885.94;5047958;28;20037;-49
2023/05/19 00:06:31;;;;;;;12.93;5.70;;;;;;;13.76;59.22;102878.41;5047903;28;20066;-44
2023/05/19 00:09:02;;;;;;;12.10;5.22;;;;;;;13.82;58.98;102882.13;5048696;28;20029;-46
2023/05/19 00:11:28;;;;;;;11.95;5.10;;;;;;;13.72;59.16;102874.78;5048442;28;20090;-45
2023/05/19 00:13:55;;;;;;;12.27;5.20;;;;;;;13.78;59.17;102879.34;5048207;28;20053;-44
2023/05/19 00:16:22;;;;;;;11.38;5.00;;;;;;;13.62;58.96;102871.81;5048681;28;20048;-49
2023/05/19 00:18:47;;;;;;;10.27;4.75;;;;;;;13.66;59.13;102874.56;5051699;28;20040;-47
2023/05/19 00:21:13;;;;;;;13.43;5.63;;;;;;;13.74;58.76;102874.84;5051763;28;20450;-44
2023/05/19 00:23:39;;;;;;;18.52;6.03;;;;;;;13.56;59.00;102875.13;5053638;28;20037;-44
2023/05/19 00:26:04;;;;;;;13.18;5.28;;;;;;;13.60;59.34;102874.38;5053771;28;20036;-45
2023/05/19 00:28:29;;;;;;;13.57;5.25;;;;;;;13.66;58.71;102874.56;5052937;28;20407;-48
2023/05/19 00:30:55;;;;;;;10.90;4.82;;;;;;;13.68;58.34;102877.25;5051399;28;20407;-50
2023/05/19 00:33:20;;;;;;;10.23;5.00;;;;;;;13.58;58.80;102872.56;5051669;28;20059;-47
2023/05/19 00:35:45;;;;;;;14.55;5.03;;;;;;;13.45;59.02;102884.38;5051487;28;20040;-45
2023/05/19 00:38:11;;;;;;;11.52;4.80;;;;;;;13.42;59.36;102881.63;5051742;28;20037;-46
2023/05/19 00:40:36;;;;;;;12.13;5.25;;;;;;;13.33;60.01;102879.63;5051612;28;20507;-48
2023/05/19 00:43:01;;;;;;;11.43;4.80;;;;;;;13.16;60.51;102879.88;5051895;28;20123;-49
2023/05/19 00:45:27;;;;;;;11.07;4.88;;;;;;;13.38;59.82;102880.66;5051430;28;20029;-47
2023/05/19 00:47:53;;;;;;;8.95;4.50;;;;;;;13.31;60.21;102883.91;5051412;28;20503;-48
2023/05/19 00:50:18;;;;;;;12.30;4.75;;;;;;;13.35;59.57;102883.19;5051344;28;20600;-49
2023/05/19 00:52:43;;;;;;;8.88;4.65;;;;;;;13.34;59.75;102886.63;5050976;28;20090;-44
2023/05/19 00:55:09;;;;;;;10.15;4.53;;;;;;;13.35;59.66;102880.56;5051543;28;20037;-45
2023/05/19 00:57:36;;;;;;;9.85;4.53;;;;;;;13.36;59.58;102876.19;5051220;28;20140;-48
2023/05/19 01:00:02;;;;;;;8.90;4.47;;;;;;;13.26;59.87;102875.00;5051000;28;20041;-44
2023/05/19 01:02:28;;;;;;;12.32;5.10;;;;;;;13.22;59.63;102873.13;5051321;28;20040;-44
2023/05/19 01:04:55;;;;;;;8.77;4.28;;;;;;;13.18;59.79;102871.22;5051034;28;20033;-47
2023/05/19 01:07:22;;;;;;;11.10;4.75;;;;;;;13.15;60.20;102872.84;5051277;28;20037;-44
2023/05/19 01:09:47;;;;;;;8.23;4.43;;;;;;;13.11;60.21;102876.19;5051439;28;20033;-48
2023/05/19 01:12:14;;;;;;;9.93;4.55;;;;;;;13.01;60.89;102874.94;5057632;28;20040;-50
2023/05/19 01:14:40;;;;;;;10.93;4.85;;;;;;;13.00;61.16;102873.16;5059614;28;20094;-49
2023/05/19 01:17:28;;;;;;;10.65;4.60;;;;;;;12.98;61.26;102865.28;5053139;28;20487;-53
2023/05/19 01:20:18;;;;;;;10.38;5.03;;;;;;;12.97;61.15;102867.84;5050591;28;20044;-48
2023/05/19 01:23:15;;;;;;;10.00;4.55;;;;;;;13.14;60.56;102861.47;5050380;28;20067;-46
2023/05/19 01:25:43;;;;;;;9.68;4.63;;;;;;;13.16;60.29;102865.06;5051378;28;20575;-46
2023/05/19 01:28:30;;;;;;;9.32;4.68;;;;;;;12.98;60.95;102862.66;5049039;28;20123;-46
2023/05/19 01:30:58;;;;;;;10.00;4.78;;;;;;;13.03;60.53;102857.56;5050890;28;20057;-45
2023/05/19 01:33:27;;;;;;;10.73;4.57;;;;;;;13.08;60.36;102850.75;5051024;28;20033;-46
2023/05/19 01:35:54;;;;;;;9.48;4.75;;;;;;;13.07;60.51;102855.94;5051004;28;20406;-48
2023/05/19 01:38:20;;;;;;;10.88;4.38;;;;;;;13.11;60.05;102858.75;5051376;28;20411;-43
2023/05/19 01:40:47;;;;;;;10.55;4.63;;;;;;;12.98;60.37;102857.41;5050397;28;20128;-48
2023/05/19 01:43:17;;;;;;;11.85;4.25;;;;;;;13.01;60.34;102861.84;5051061;28;20041;-51
2023/05/19 01:45:43;;;;;;;11.73;4.45;;;;;;;12.85;61.03;102862.16;5049830;28;20056;-45
2023/05/19 01:48:08;;;;;;;8.82;4.68;;;;;;;12.74;61.32;102856.56;5050539;28;20071;-48
2023/05/19 01:50:34;;;;;;;9.90;4.70;;;;;;;12.77;61.18;102859.25;5049942;28;20538;-43
2023/05/19 01:53:00;;;;;;;10.60;4.45;;;;;;;12.79;61.16;102857.59;5050322;28;20123;-47
2023/05/19 01:55:25;;;;;;;11.18;4.38;;;;;;;12.73;60.92;102854.75;5050077;28;20078;-44
2023/05/19 01:58:00;;;;;;;11.85;5.00;;;;;;;12.69;61.21;102851.97;5050736;28;20052;-49
2023/05/19 02:00:28;;;;;;;;;;;;;;;12.60;61.60;102853.44;5051325;28;20033;-45
2023/05/19 02:03:16;;;;;;;10.65;4.53;;;;;;;12.60;61.30;102842.06;5050323;28;19917;-51
2023/05/19 02:06:20;;;;;;;7.20;4.45;;;;;;;12.54;61.80;102841.84;5050468;28;20043;-45
2023/05/19 02:09:17;;;;;;;8.75;4.32;;;;;;;12.50;61.50;102839.97;4994923;28;20038;-44
2023/05/19 02:11:53;;;;;;;6.90;4.20;;;;;;;12.52;61.75;102846.13;5034431;28;20440;-47
2023/05/19 02:14:39;;;;;;;8.38;4.38;;;;;;;12.39;62.18;102839.53;5050831;28;20040;-44
2023/05/19 02:17:05;;;;;;;9.02;4.40;;;;;;;12.41;62.37;102837.88;5050182;28;20041;-44
2023/05/19 02:19:33;;;;;;;8.70;4.60;;;;;;;12.49;61.97;102848.63;5049884;28;20056;-45
2023/05/19 02:21:58;;;;;;;8.52;4.57;;;;;;;12.39;62.19;102843.88;5050578;28;20359;-47
2023/05/19 02:24:24;;;;;;;9.65;5.20;;;;;;;12.37;62.10;102840.34;5050366;28;20479;-46
2023/05/19 02:26:51;;;;;;;12.07;5.20;;;;;;;12.28;62.40;102840.88;5049927;28;20037;-44
2023/05/19 02:29:16;;;;;;;8.93;4.45;;;;;;;12.30;62.06;102841.81;5050300;28;20041;-44
2023/05/19 02:31:42;;;;;;;10.68;4.45;;;;;;;12.25;62.09;102837.25;5050000;28;20036;-43
2023/05/19 02:34:07;;;;;;;9.05;4.80;;;;;;;12.20;61.96;102843.19;5049556;28;20033;-44
2023/05/19 02:36:35;;;;;;;12.27;4.93;;;;;;;12.16;61.96;102837.78;5049438;28;20127;-48
2023/05/19 02:39:03;;;;;;;10.50;4.72;;;;;;;12.11;62.23;102842.84;5048189;28;20033;-44
2023/05/19 02:41:29;;;;;;;9.65;4.78;;;;;;;12.07;62.35;102829.63;5049353;28;20025;-46
2023/05/19 02:43:54;;;;;;;9.48;4.60;;;;;;;12.07;61.97;102827.00;5049244;28;20463;-47
2023/05/19 02:46:20;;;;;;;9.30;4.80;;;;;;;11.99;62.26;102823.19;5048582;28;20033;-48
2023/05/19 02:48:45;;;;;;;9.38;4.65;;;;;;;11.97;62.72;102824.84;5048883;28;20037;-51
2023/05/19 02:51:10;;;;;;;9.60;5.00;;;;;;;11.96;63.10;102828.28;5049370;28;20044;-45
2023/05/19 02:53:36;;;;;;;10.40;4.45;;;;;;;11.95;62.71;102823.91;5048702;28;20024;-47
2023/05/19 02:56:01;;;;;;;8.23;4.75;;;;;;;11.97;63.24;102828.34;5048298;28;20087;-45
2023/05/19 02:58:26;;;;;;;8.73;4.72;;;;;;;11.94;63.46;102824.75;5048116;28;20079;-45
2023/05/19 03:00:51;;;;;;;11.00;4.85;;;;;;;11.97;63.11;102827.47;5048535;28;20033;-47
2023/05/19 03:03:17;;;;;;;11.65;5.10;;;;;;;11.95;62.83;102829.13;5048754;28;20128;-46
2023/05/19 03:05:42;;;;;;;9.82;5.47;;;;;;;11.93;63.06;102815.13;5048178;28;20025;-46
2023/05/19 03:08:08;;;;;;;8.70;4.82;;;;;;;11.88;63.38;102819.28;5049475;28;20033;-45
2023/05/19 03:10:34;;;;;;;7.68;4.65;;;;;;;11.90;62.86;102813.25;5048823;28;20075;-47
2023/05/19 03:12:59;;;;;;;12.13;4.85;;;;;;;11.82;63.54;102817.31;5048821;28;20084;-44
2023/05/19 03:15:24;;;;;;;11.10;4.97;;;;;;;11.80;63.32;102826.81;5054907;28;20040;-51
2023/05/19 03:17:50;;;;;;;9.70;5.10;;;;;;;11.85;63.52;102820.03;5062426;28;20044;-45
2023/05/19 03:20:16;;;;;;;9.95;4.75;;;;;;;11.85;63.72;102813.91;5055651;28;20040;-47
2023/05/19 03:22:41;;;;;;;8.27;4.68;;;;;;;11.85;63.87;102821.75;5050133;28;20040;-43
2023/05/19 03:25:07;;;;;;;10.93;4.82;;;;;;;11.79;63.86;102811.97;5050159;28;20029;-42
2023/05/19 03:27:32;;;;;;;11.10;4.90;;;;;;;11.85;63.95;102814.81;5050157;28;20044;-45
2023/05/19 03:29:57;;;;;;;12.55;5.15;;;;;;;11.86;63.72;102816.59;5050849;28;20025;-45
2023/05/19 03:32:23;;;;;;;7.70;4.80;;;;;;;11.82;63.61;102809.47;5049788;28;20082;-47
2023/05/19 03:34:48;;;;;;;11.00;5.10;;;;;;;11.82;63.89;102811.19;5048382;28;20430;-44
2023/05/19 03:37:13;;;;;;;9.50;5.07;;;;;;;11.78;63.84;102805.84;5048196;28;20112;-47
2023/05/19 03:39:39;;;;;;;9.68;4.80;;;;;;;11.79;63.87;102810.22;5048830;28;20033;-47
2023/05/19 03:42:04;;;;;;;9.63;4.93;;;;;;;11.83;64.06;102810.38;5048554;28;20033;-50
2023/05/19 03:44:29;;;;;;;10.32;5.10;;;;;;;11.77;64.28;102817.13;5048121;28;20124;-49
2023/05/19 03:46:55;;;;;;;13.35;5.50;;;;;;;11.83;64.61;102807.75;5048151;28;20033;-45
2023/05/19 03:49:20;;;;;;;10.75;5.05;;;;;;;11.82;65.34;102811.19;5048244;28;20463;-50
2023/05/19 03:51:45;;;;;;;9.73;5.13;;;;;;;11.87;65.32;102813.16;5051384;28;20037;-47
2023/05/19 03:54:11;;;;;;;12.65;5.45;;;;;;;11.92;65.47;102810.72;5052363;28;20531;-46
2023/05/19 03:56:38;;;;;;;9.10;4.95;;;;;;;11.95;65.07;102814.34;5052130;28;20040;-46
2023/05/19 03:59:05;;;;;;;11.10;5.20;;;;;;;12.10;65.12;102808.81;5051887;28;20630;-46
2023/05/19 04:01:31;;;;;;;11.73;5.10;;;;;;;12.01;65.43;102819.81;5052493;28;20534;-48
2023/05/19 04:03:56;;;;;;;11.77;5.18;;;;;;;12.09;65.65;102809.63;5052752;28;20110;-48
2023/05/19 04:06:22;;;;;;;11.18;4.90;;;;;;;12.16;65.47;102814.25;5051675;28;20041;-46
2023/05/19 04:08:47;;;;;;;13.10;5.50;;;;;;;11.96;67.01;102812.59;5052887;28;20090;-47
2023/05/19 04:11:13;;;;;;;9.60;4.93;;;;;;;12.26;65.77;102811.16;5051920;28;20344;-45
2023/05/19 04:13:38;;;;;;;9.90;5.13;;;;;;;12.27;65.92;102814.66;5051264;28;20499;-45
2023/05/19 04:16:04;;;;;;;9.98;5.18;;;;;;;12.20;66.04;102822.28;5051722;28;20029;-51
2023/05/19 04:18:30;;;;;;;12.07;5.25;;;;;;;12.40;65.49;102816.91;5051905;28;20083;-46
2023/05/19 04:20:55;;;;;;;9.45;4.95;;;;;;;12.22;66.51;102821.44;5051544;28;20539;-44
2023/05/19 04:23:20;;;;;;;8.32;4.97;;;;;;;12.47;65.81;102827.66;5051608;28;20055;-45
2023/05/19 04:25:47;;;;;;;14.93;5.20;;;;;;;12.64;65.15;102825.63;5051412;28;20395;-50
2023/05/19 04:28:13;;;;;;;8.13;4.75;;;;;;;12.67;65.23;102825.75;5051688;28;20033;-45
2023/05/19 04:30:39;;;;;;;8.65;5.10;;;;;;;12.39;65.93;102826.47;5051315;28;20411;-47
2023/05/19 04:33:06;;;;;;;12.43;5.07;;;;;;;12.62;65.38;102823.81;5051297;28;20112;-53
2023/05/19 04:35:31;;;;;;;12.23;5.78;;;;;;;12.60;65.84;102823.75;5051314;28;20490;-45
2023/05/19 04:37:57;;;;;;;11.05;5.50;;;;;;;12.47;66.21;102824.13;5051260;28;20040;-45
2023/05/19 04:40:22;;;;;;;11.85;5.15;;;;;;;12.70;65.76;102820.63;5051144;28;20033;-46
2023/05/19 04:42:51;;;;;;;10.10;5.38;;;;;;;12.80;65.30;102820.13;5051307;28;20120;-45
2023/05/19 04:45:16;;;;;;;10.20;5.00;;;;;;;13.13;64.51;102817.78;5051332;28;20037;-44
2023/05/19 04:47:43;;;;;;;14.02;5.22;;;;;;;12.77;65.46;102820.00;5052404;28;20037;-48
2023/05/19 04:50:10;;;;;;;9.13;5.38;;;;;;;12.97;64.64;102818.97;5054117;28;20058;-44
2023/05/19 04:52:36;;;;;;;11.40;5.07;;;;;;;13.32;64.26;102829.78;5055518;28;20097;-50
2023/05/19 04:55:02;;;;;;;10.73;4.68;;;;;;;13.43;63.95;102820.53;5053980;28;20025;-48
2023/05/19 04:57:27;;;;;;;10.63;5.00;;;;;;;13.04;65.13;102825.31;5052514;28;20529;-45
2023/05/19 04:59:58;;;;;;;12.75;6.03;;;;;;;13.57;63.42;102826.22;5051324;28;20084;-47
2023/05/19 05:02:23;;;;;;;12.50;5.90;;;;;;;13.66;62.88;102827.41;5049903;28;20043;-48
2023/05/19 05:04:49;;;;;;;7.78;4.50;;;;;;;13.85;62.79;102831.50;5050919;28;20036;-43
2023/05/19 05:07:14;;;;;;;10.35;5.00;;;;;;;13.89;62.75;102835.13;5051041;28;20083;-45
2023/05/19 05:09:40;;;;;;;8.45;4.78;;;;;;;14.25;62.41;102837.97;5052325;28;20115;-45
2023/05/19 05:12:06;;;;;;;9.85;5.30;;;;;;;14.96;59.39;102834.75;5053148;28;20025;-48
2023/05/19 05:14:32;;;;;;;12.68;5.30;;;;;;;15.55;57.67;102830.16;5053841;28;20033;-47
2023/05/19 05:16:58;;;;;;;11.68;4.82;;;;;;;16.35;55.06;102823.16;5053065;28;20589;-48
2023/05/19 05:19:23;;;;;;;12.77;5.57;;;;;;;16.92;53.13;102826.09;5050334;28;20041;-45
2023/05/19 05:21:49;;;;;;;12.52;5.43;;;;;;;17.35;50.77;102827.72;5051978;28;20086;-47
2023/05/19 05:24:15;;;;;;;11.10;5.57;;;;;;;17.50;49.35;102827.09;5051655;28;20083;-43
2023/05/19 05:26:41;;;;;;;11.90;5.45;;;;;;;17.89;48.58;102825.06;5051116;28;20087;-44
2023/05/19 05:29:08;;;;;;;18.20;6.28;;;;;;;18.09;47.17;102830.63;5050047;28;20029;-46
2023/05/19 05:31:33;;;;;;;10.68;5.30;;;;;;;18.58;47.03;102829.53;5050232;28;20067;-44
2023/05/19 05:33:59;;;;;;;12.15;6.03;;;;;;;18.20;47.12;102843.09;5050072;28;20462;-47
2023/05/19 05:36:24;;;;;;;11.60;5.68;;;;;;;18.57;47.16;102831.28;5050114;28;20527;-47
2023/05/19 05:38:50;;;;;;;11.60;5.22;;;;;;;19.37;45.58;102836.47;5049869;28;20033;-44
2023/05/19 05:41:15;;;;;;;12.55;5.45;;;;;;;19.88;44.02;102823.66;5049947;28;20121;-48
2023/05/19 05:43:41;;;;;;;12.98;5.72;;;;;;;19.98;43.46;102829.00;5050225;28;20140;-49
2023/05/19 05:46:06;;;;;;;11.38;5.40;;;;;;;20.61;42.76;102827.53;5049515;28;20480;-44
2023/05/19 05:48:32;;;;;;;11.50;5.20;;;;;;;20.88;41.53;102830.22;5048174;28;20048;-46
2023/05/19 05:50:58;;;;;;;8.85;5.10;;;;;;;21.72;40.23;102825.84;5049818;28;20032;-48
2023/05/19 05:53:25;;;;;;;11.20;5.30;;;;;;;21.73;39.38;102819.66;5049828;28;20029;-45
2023/05/19 05:55:52;;;;;;;12.18;5.00;;;;;;;22.23;38.29;102831.94;5050228;28;20059;-45
2023/05/19 05:58:17;;;;;;;10.43;4.97;;;;;;;23.07;35.76;102816.41;5049996;28;20047;-43
2023/05/19 06:00:43;;;;;;;9.02;4.63;;;;;;;23.84;35.67;102826.38;5050440;28;20033;-45
2023/05/19 06:03:09;;;;;;;10.65;5.25;;;;;;;23.39;35.88;102825.00;5049630;28;20407;-45
2023/05/19 06:05:35;;;;;;;10.00;5.10;;;;;;;22.95;36.06;102806.75;5049994;28;20124;-48
2023/05/19 06:08:00;;;;;;;19.08;5.60;;;;;;;22.77;36.51;102820.16;5049588;28;20116;-46
2023/05/19 06:10:29;;;;;;;10.73;5.35;;;;;;;22.66;36.06;102814.00;5049765;28;20037;-45
2023/05/19 06:12:54;;;;;;;9.25;4.90;;;;;;;23.29;34.81;102815.34;5049655;28;20025;-47
2023/05/19 06:15:20;;;;;;;13.25;5.28;;;;;;;23.47;35.22;102816.13;5049609;28;20039;-45
2023/05/19 06:17:46;;;;;;;9.13;5.43;;;;;;;23.33;34.99;102824.19;5048724;28;20040;-47
2023/05/19 06:20:12;;;;;;;12.13;5.32;;;;;;;22.81;35.97;102816.59;5049802;28;20495;-47
2023/05/19 06:22:37;;;;;;;11.45;5.40;;;;;;;22.81;36.18;102821.91;5048947;28;20037;-46
2023/05/19 06:25:03;;;;;;;12.77;5.70;;;;;;;22.12;36.78;102825.78;5048849;28;20536;-48
2023/05/19 06:27:28;;;;;;;11.27;5.80;;;;;;;21.88;38.38;102821.41;5048854;28;20041;-46
2023/05/19 06:29:53;;;;;;;10.95;5.75;;;;;;;21.77;38.65;102823.19;5047628;28;20025;-46
2023/05/19 06:32:19;;;;;;;11.05;5.43;;;;;;;23.05;36.55;102816.41;5048957;28;20513;-46
2023/05/19 06:34:44;;;;;;;12.82;5.90;;;;;;;22.06;37.90;102828.47;5048790;28;20508;-45
2023/05/19 06:37:10;;;;;;;10.93;5.80;;;;;;;22.21;37.84;102821.31;5049377;28;20032;-48
2023/05/19 06:39:37;;;;;;;9.88;5.63;;;;;;;22.55;37.34;102822.03;5049254;28;20091;-47
2023/05/19 06:42:02;;;;;;;13.52;5.05;;;;;;;23.65;35.75;102819.47;5049430;28;20030;-45
2023/05/19 06:44:27;;;;;;;12.35;5.38;;;;;;;24.11;34.91;102818.94;5049822;28;20117;-44
2023/05/19 06:46:53;;;;;;;9.07;5.63;;;;;;;24.10;33.44;102819.84;5048531;28;20032;-51
2023/05/19 06:49:18;;;;;;;11.98;5.57;;;;;;;23.89;33.80;102821.00;5048853;28;20047;-47
2023/05/19 06:51:44;;;;;;;11.30;5.88;;;;;;;23.07;36.97;102821.72;5047183;28;20025;-44
2023/05/19 06:54:11;;;;;;;9.48;5.30;;;;;;;23.55;36.14;102820.44;5048995;28;20438;-52
2023/05/19 06:56:37;;;;;;;13.73;5.68;;;;;;;23.72;35.39;102825.63;5048611;28;20171;-45
2023/05/19 06:59:02;;;;;;;12.25;6.05;;;;;;;23.66;35.17;102821.25;5048239;28;20119;-46
2023/05/19 07:01:28;;;;;;;12.52;5.80;;;;;;;23.85;34.55;102824.56;5048334;28;20486;-46
2023/05/19 07:03:54;;;;;;;11.05;5.35;;;;;;;23.65;35.18;102818.59;5048351;28;20055;-48
2023/05/19 07:06:19;;;;;;;10.32;5.28;;;;;;;23.88;35.40;102823.66;5048526;28;20487;-45
2023/05/19 07:08:45;;;;;;;9.48;5.57;;;;;;;23.72;34.05;102822.97;5048314;28;20025;-45
2023/05/19 07:11:11;;;;;;;9.45;5.63;;;;;;;23.94;33.43;102824.50;5048986;28;20052;-47
2023/05/19 07:13:36;;;;;;;12.82;5.90;;;;;;;22.85;36.41;102822.78;5048854;28;20487;-46
2023/05/19 07:16:02;;;;;;;12.25;5.90;;;;;;;22.78;36.00;102818.38;5048616;28;20033;-45
2023/05/19 07:18:30;;;;;;;12.18;5.53;;;;;;;22.78;38.14;102821.03;5049457;28;20036;-46
2023/05/19 07:20:56;;;;;;;10.45;5.78;;;;;;;23.20;36.01;102819.84;5048520;28;20063;-47
2023/05/19 07:23:21;;;;;;;9.80;5.53;;;;;;;23.56;36.12;102821.34;5051177;28;20604;-50
2023/05/19 07:25:47;;;;;;;10.63;5.15;;;;;;;24.72;34.28;102819.06;5052355;28;20454;-50
2023/05/19 07:28:12;;;;;;;11.82;5.80;;;;;;;25.45;32.09;102818.78;5051419;28;20028;-47
2023/05/19 07:30:37;;;;;;;10.25;5.30;;;;;;;25.22;32.69;102823.63;5048210;28;20552;-45
2023/05/19 07:33:03;;;;;;;12.80;5.80;;;;;;;24.88;33.93;102815.28;5048133;28;20041;-50
2023/05/19 07:35:28;;;;;;;10.27;5.25;;;;;;;25.89;31.49;102819.78;5048279;28;20073;-46
2023/05/19 07:37:53;;;;;;;11.85;4.63;;;;;;;26.30;30.52;102808.25;5048425;28;20025;-45
2023/05/19 07:40:19;;;;;;;11.88;5.57;;;;;;;25.64;32.01;102802.44;5048591;28;20049;-46
2023/05/19 07:42:44;;;;;;;10.98;5.72;;;;;;;24.89;32.98;102805.47;5048127;28;20111;-45
2023/05/19 07:45:10;;;;;;;12.75;5.93;;;;;;;24.94;32.13;102809.00;5048752;28;20082;-46
2023/05/19 07:47:36;;;;;;;10.23;5.75;;;;;;;25.27;31.84;102805.75;5048163;28;20029;-46
2023/05/19 07:50:02;;;;;;;10.98;5.65;;;;;;;25.52;31.08;102803.53;5047980;28;20033;-46
2023/05/19 07:52:27;;;;;;;10.48;5.15;;;;;;;26.39;29.68;102794.69;5048956;28;20090;-48
2023/05/19 07:54:53;;;;;;;8.57;4.47;;;;;;;26.77;29.47;102796.50;5048499;28;20426;-47
2023/05/19 07:57:18;;;;;;;8.60;4.57;;;;;;;26.52;28.17;102796.19;5048649;28;20039;-52
2023/05/19 07:59:44;;;;;;;10.02;4.32;;;;;;;26.33;29.58;102797.50;5048003;28;20116;-49
2023/05/19 08:02:09;;;;;;;9.35;5.35;;;;;;;25.61;30.28;102792.72;5047959;28;20037;-47
2023/05/19 08:04:35;;;;;;;9.23;4.65;;;;;;;25.17;30.90;102793.47;5047817;28;20071;-50
2023/05/19 08:07:00;;;;;;;10.40;4.80;;;;;;;24.12;32.28;102794.06;5047740;28;20053;-46
2023/05/19 08:09:25;;;;;;;11.75;5.05;;;;;;;23.32;34.51;102799.34;5047866;28;20442;-45
2023/05/19 08:11:51;;;;;;;11.18;5.22;;;;;;;;;;5047841;28;20029;-49
2023/05/19 08:14:16;;;;;;;11.13;4.82;;;;;;;24.64;31.33;102794.31;5047652;28;20368;-48
2023/05/19 08:16:42;;;;;;;11.05;4.78;;;;;;;25.33;29.81;102792.28;5048219;28;20041;-50
2023/05/19 08:19:08;;;;;;;11.52;5.10;;;;;;;25.29;31.33;102785.25;5047693;28;20048;-45
2023/05/19 08:21:34;;;;;;;8.27;4.30;;;;;;;26.35;28.22;102778.75;5047311;28;20037;-47
2023/05/19 08:24:00;;;;;;;8.15;4.68;;;;;;;25.99;28.51;102785.72;5047157;28;20029;-50
2023/05/19 08:26:26;;;;;;;8.82;4.93;;;;;;;25.27;29.87;102795.06;5047263;28;20037;-52
2023/05/19 08:28:51;;;;;;;11.45;5.22;;;;;;;23.44;32.41;102787.69;5047221;28;20166;-48
2023/05/19 08:31:17;;;;;;;11.40;5.60;;;;;;;23.01;34.12;102780.09;5047028;28;20120;-49
2023/05/19 08:33:43;;;;;;;11.55;5.40;;;;;;;22.13;34.29;102783.28;5047775;28;20466;-44
2023/05/19 08:36:08;;;;;;;11.05;5.45;;;;;;;21.26;36.58;102782.56;5047350;28;20087;-48
2023/05/19 08:38:33;;;;;;;11.93;5.45;;;;;;;21.00;36.90;102785.16;5050084;28;20043;-48
2023/05/19 08:40:59;;;;;;;10.02;5.53;;;;;;;21.46;37.11;102787.84;5050834;28;20569;-49
2023/05/19 08:43:24;;;;;;;12.02;5.82;;;;;;;20.72;37.37;102775.44;5050917;28;20045;-45
2023/05/19 08:45:52;;;;;;;12.88;6.10;;;;;;;20.89;38.06;102770.13;5050670;28;20036;-45
2023/05/19 08:48:18;;;;;;;16.25;6.07;;;;;;;21.39;37.36;102767.50;5050548;28;20041;-45
2023/05/19 08:51:09;;;;;;;11.75;5.75;;;;;;;21.34;37.48;102767.53;5050837;28;20033;-48
2023/05/19 08:53:42;;;;;;;14.38;6.13;;;;;;;21.01;36.73;102768.38;5050671;28;20028;-51
2023/05/19 08:56:15;;;;;;;11.52;5.32;;;;;;;20.87;37.84;102764.81;5050841;28;20079;-44
2023/05/19 08:58:42;;;;;;;13.45;5.80;;;;;;;20.69;37.93;102748.91;5050884;28;20037;-49
2023/05/19 09:01:09;;;;;;;9.35;4.90;;;;;;;21.24;37.26;102762.22;5050704;28;20384;-46
2023/05/19 09:03:38;;;;;;;10.13;4.78;;;;;;;21.34;35.94;102762.22;5050714;28;20028;-45
2023/05/19 09:06:07;;;;;;;10.48;4.65;;;;;;;21.17;35.53;102757.78;5050547;28;20056;-47
2023/05/19 09:08:33;;;;;;;11.63;5.00;;;;;;;20.86;36.34;102760.41;5050760;28;20083;-46
2023/05/19 09:10:59;;;;;;;12.93;4.70;;;;;;;20.96;36.11;102767.50;5050910;28;20517;-44
2023/05/19 09:13:25;;;;;;;9.38;3.85;;;;;;;21.20;35.14;102763.09;5050486;28;20052;-45
2023/05/19 09:15:52;;;;;;;10.60;4.18;;;;;;;20.46;35.37;102755.94;5050567;28;20037;-48
2023/05/19 09:18:17;;;;;;;8.95;3.95;;;;;;;20.92;35.83;102755.09;5050600;28;20041;-44
2023/05/19 09:20:45;;;;;;;10.55;3.97;;;;;;;21.20;35.85;102750.72;5050957;28;20036;-52
2023/05/19 09:23:15;;;;;;;7.45;3.58;;;;;;;21.57;34.54;102755.97;5050448;28;20037;-46
2023/05/19 09:25:46;;;;;;;9.07;3.42;;;;;;;22.03;34.03;102746.09;5052528;28;20037;-46
2023/05/19 09:28:11;;;;;;;8.95;3.67;;;;;;;21.94;33.35;102754.09;5057018;28;20060;-43
2023/05/19 09:30:36;;;;;;;8.45;3.40;;;;;;;21.74;31.95;102740.88;5053117;28;20033;-45
2023/05/19 09:33:03;;;;;;;11.20;3.30;;;;;;;22.13;32.60;102743.44;5049985;28;20115;-49
2023/05/19 09:35:28;;;;;;;7.65;2.90;;;;;;;21.91;30.76;102748.78;5049751;28;20491;-47
2023/05/19 09:37:54;;;;;;;9.18;3.38;;;;;;;21.68;31.46;102756.84;5050928;28;20029;-45
2023/05/19 09:40:19;;;;;;;8.85;3.20;;;;;;;21.85;32.64;102752.34;5050879;28;20110;-50
2023/05/19 09:42:44;;;;;;;8.00;3.20;;;;;;;21.97;32.62;102756.75;5050385;28;20047;-45
2023/05/19 09:45:10;;;;;;;8.30;3.33;;;;;;;21.56;32.77;102755.09;5050779;28;20040;-46
2023/05/19 09:47:37;;;;;;;8.50;3.47;;;;;;;22.06;32.92;102747.00;5051020;28;20557;-48
2023/05/19 09:50:05;;;;;;;9.88;3.28;;;;;;;21.80;33.00;102746.19;5050570;28;20025;-45
2023/05/19 09:52:34;;;;;;;9.85;3.30;;;;;;;21.49;32.34;102748.03;5050385;28;20047;-44
2023/05/19 09:55:01;;;;;;;12.45;3.30;;;;;;;21.75;32.38;102750.63;5050252;28;20036;-44
2023/05/19 09:57:27;;;;;;;8.13;3.03;;;;;;;22.06;30.66;102746.13;5049773;28;20499;-44
2023/05/19 09:59:55;;;;;;;5.70;2.55;;;;;;;22.33;29.96;102745.06;5049859;28;20047;-47
2023/05/19 10:02:23;;;;;;;6.20;2.70;;;;;;;21.99;30.51;102741.72;5049325;28;20033;-50
2023/05/19 10:04:50;;;;;;;7.18;2.60;;;;;;;22.23;30.58;102738.94;5049294;28;20120;-49
2023/05/19 10:07:18;;;;;;;6.05;2.50;;;;;;;22.70;31.30;102728.00;5049353;28;20032;-44
2023/05/19 10:09:43;;;;;;;9.18;2.63;;;;;;;22.57;29.95;102734.28;5050019;28;20032;-45
2023/05/19 10:12:10;;;;;;;7.90;2.70;;;;;;;22.64;28.32;102726.25;5049804;28;20036;-48
2023/05/19 10:14:36;;;;;;;6.18;2.85;;;;;;;22.39;29.09;102745.91;5049205;28;20037;-48
2023/05/19 10:17:02;;;;;;;5.82;2.60;;;;;;;22.51;28.64;102740.53;5048948;28;20411;-45
2023/05/19 10:19:27;;;;;;;7.03;2.72;;;;;;;22.94;28.92;102737.59;5049505;28;20059;-44
2023/05/19 10:21:54;;;;;;;6.82;3.08;;;;;;;22.84;28.57;102728.81;5049415;28;20033;-43
2023/05/19 10:24:20;;;;;;;5.18;2.63;;;;;;;23.16;28.70;102728.53;5049753;28;20099;-48
2023/05/19 10:27:10;;;;;;;8.07;3.30;;;;;;;22.68;29.33;102735.13;5052024;28;20029;-47
2023/05/19 10:29:40;;;;;;;7.57;3.30;;;;;;;22.70;30.09;102733.31;5053045;28;20056;-48
2023/05/19 10:32:10;;;;;;;10.48;3.80;;;;;;;22.37;30.76;102731.78;5051721;28;20029;-46
2023/05/19 10:35:08;;;;;;;11.80;3.90;;;;;;;22.72;30.79;102723.59;5049268;28;20041;-48
2023/05/19 10:37:40;;;;;;;6.28;3.53;;;;;;;22.12;30.70;102725.72;5051365;28;20040;-44
2023/05/19 10:40:12;;;;;;;12.27;3.50;;;;;;;22.48;30.77;102713.09;5054033;28;20041;-48
2023/05/19 10:42:57;;;;;;;10.88;3.60;;;;;;;22.42;30.97;102715.78;5053438;28;20047;-46
2023/05/19 10:45:27;;;;;;;10.07;3.40;;;;;;;22.56;30.79;102716.59;5051717;28;20095;-49
2023/05/19 10:47:53;;;;;;;7.15;3.58;;;;;;;22.45;30.42;102713.09;5049069;28;20021;-46
2023/05/19 10:50:19;;;;;;;7.18;3.30;;;;;;;22.43;31.00;102714.91;5048437;28;20044;-48
2023/05/19 10:52:52;;;;;;;8.75;3.70;;;;;;;22.41;30.81;102717.56;5048746;28;20108;-48
2023/05/19 10:55:47;;;;;;;9.13;3.88;;;;;;;22.05;32.39;102718.66;5048533;28;20116;-44
2023/05/19 10:58:12;;;;;;;9.40;3.88;;;;;;;21.64;32.73;102712.63;5048548;28;20041;-45
2023/05/19 11:00:39;;;;;;;11.77;3.92;;;;;;;21.75;32.31;102710.78;5047953;28;20568;-47
2023/05/19 11:03:14;;;;;;;9.23;3.70;;;;;;;21.99;32.54;102707.19;5048668;28;20133;-45
2023/05/19 11:05:42;;;;;;;7.38;3.38;;;;;;;22.50;31.35;102701.56;5048260;28;20044;-44
2023/05/19 11:08:09;;;;;;;8.52;4.03;;;;;;;21.95;32.76;102702.75;5048430;28;20459;-51
2023/05/19 11:10:34;;;;;;;9.73;4.38;;;;;;;22.30;32.82;102699.94;5048316;28;20040;-46
2023/05/19 11:13:00;;;;;;;7.75;4.07;;;;;;;22.39;32.40;102707.81;5048023;28;20033;-47
2023/05/19 11:15:26;;;;;;;10.65;4.57;;;;;;;22.48;32.25;102708.66;5048362;28;20056;-48
2023/05/19 11:17:52;;;;;;;12.10;4.68;;;;;;;22.25;32.62;102694.66;5048785;28;20086;-50
2023/05/19 11:20:24;;;;;;;11.68;4.40;;;;;;;22.62;31.97;102700.59;5048673;28;20128;-47
2023/05/19 11:23:18;;;;;;;12.43;5.20;;;;;;;22.31;32.78;102702.59;5048298;28;20115;-46